Wednesday, October 17, 2018, 12:08 PM EDT
Back to Local

KBDL, Bradley International Airport

Location: Windsor Locks, CT, United States Lat: 41.933
Local Time: 12:08 PM EDT (16:08 GMT) Lon: -72.683
Time Zone: US/Eastern Elev: 173 ft

Show me the last for .
Show Decoded

2018-10-17 11:51 METAR KBDL 171551Z 20010KT 10SM FEW050 FEW250 14/04 A2985 RMK AO2 SLP108
                 T01440039 =
2018-10-17 10:51 METAR KBDL 171451Z 20009KT 10SM FEW090 FEW120 FEW250 13/03 A2987 RMK AO2 SLP116
                 T01280033 58015 =
2018-10-17 09:51 METAR KBDL 171351Z 25006KT 10SM FEW120 FEW200 10/03 A2991 RMK AO2 SLP128
                 T01000028 =
2018-10-17 08:51 METAR KBDL 171251Z 24008KT 10SM FEW090 SCT140 BKN200 08/02 A2992 RMK AO2 SLP134
                 T00780022 =
2018-10-17 07:51 METAR KBDL 171151Z 16004KT 10SM FEW090 FEW200 04/03 A2992 RMK AO2 SLP131
                 T00440028 10050 20028 58014 =
2018-10-17 06:51 METAR KBDL 171051Z 17005KT 10SM FEW090 FEW250 03/02 A2993 RMK AO2 SLP136
                 T00280017 =
2018-10-17 05:51 METAR KBDL 170951Z 18003KT 10SM FEW090 FEW250 04/02 A2994 RMK AO2 SLP140
                 T00390017 =
2018-10-17 04:51 METAR KBDL 170851Z 17007KT 10SM FEW090 FEW250 03/02 A2996 RMK AO2 SLP145
                 T00330022 56015 =
2018-10-17 03:51 METAR KBDL 170751Z 16008KT 10SM SCT250 04/02 A2996 RMK AO2 SLP147 T00440022 =
2018-10-17 02:51 METAR KBDL 170651Z 17006KT 10SM SCT250 04/02 A2997 RMK AO2 SLP150 T00390022 =
2018-10-17 01:51 METAR KBDL 170551Z 17006KT 10SM SCT250 05/02 A3000 RMK AO2 SLP159 T00500022
                 10083 20044 58008 =
2018-10-16 23:51 METAR KBDL 170351Z 22003KT 10SM BKN250 07/02 A3002 RMK AO2 SLP166 T00670022 =
2018-10-16 22:51 METAR KBDL 170251Z 21005KT 10SM FEW150 BKN250 07/02 A3002 RMK AO2 SLP168
                 T00670022 51001 =
2018-10-16 21:51 METAR KBDL 170151Z 00000KT 10SM FEW050 FEW150 BKN250 07/03 A3002 RMK AO2 SLP167
                 T00720028 =
2018-10-16 20:51 METAR KBDL 170051Z 22005KT 10SM FEW150 BKN250 08/02 A3003 RMK AO2 SLP169
                 T00780022 =
2018-10-16 19:51 METAR KBDL 162351Z 22005KT 10SM FEW050 FEW150 SCT250 08/03 A3002 RMK AO2 SLP167
                 T00830028 10144 20083 50007 =
2018-10-16 18:51 METAR KBDL 162251Z 22006KT 10SM FEW150 SCT250 09/03 A3003 RMK AO2 SLP168
                 T00940033 =
2018-10-16 17:51 METAR KBDL 162151Z 22004KT 10SM FEW150 SCT250 11/01 A3000 RMK AO2 SLP159
                 T01110011 =
2018-10-16 16:51 METAR KBDL 162051Z 27007KT 10SM FEW150 FEW250 13/M01 A3000 RMK AO2 SLP160
                 T01331006 56014 =
2018-10-16 15:51 METAR KBDL 161951Z 26010KT 10SM FEW050 FEW250 14/M01 A3001 RMK AO2 SLP164
                 T01391011 =
2018-10-16 14:51 METAR KBDL 161851Z 27009KT 10SM FEW050 FEW250 14/00 A3002 RMK AO2 SLP165
                 T01440000 =
2018-10-16 13:51 METAR KBDL 161751Z 28014G17KT 10SM FEW050 FEW250 14/00 A3004 RMK AO2 SLP173
                 T01390000 10139 20067 58017 =
2018-10-16 12:51 METAR KBDL 161651Z 31012KT 10SM FEW050 SCT250 13/01 A3006 RMK AO2 SLP180
                 T01330006 =

Support USWX by starting your Amazon purchase here.